sensor_id;sensor_type;location;lat;lon;timestamp;P1;durP1;ratioP1;P2;durP2;ratioP2
62673;SDS011;62269;47.594;17.638;2024-03-02T00:00:35;25.30;;;19.00;;
62673;SDS011;62269;47.594;17.638;2024-03-02T00:01:32;28.98;;;20.35;;
62673;SDS011;62269;47.594;17.638;2024-03-02T00:02:29;28.27;;;19.23;;
62673;SDS011;62269;47.594;17.638;2024-03-02T00:03:26;25.50;;;20.35;;
62673;SDS011;62269;47.594;17.638;2024-03-02T00:04:23;26.67;;;21.37;;
62673;SDS011;62269;47.594;17.638;2024-03-02T00:05:21;29.75;;;22.15;;
62673;SDS011;62269;47.594;17.638;2024-03-02T00:06:20;25.73;;;20.92;;
62673;SDS011;62269;47.594;17.638;2024-03-02T00:07:18;28.30;;;22.37;;
62673;SDS011;62269;47.594;17.638;2024-03-02T00:08:15;27.52;;;21.70;;
62673;SDS011;62269;47.594;17.638;2024-03-02T00:09:23;25.85;;;20.40;;
62673;SDS011;62269;47.594;17.638;2024-03-02T00:10:22;24.23;;;19.90;;
62673;SDS011;62269;47.594;17.638;2024-03-02T00:11:26;26.02;;;20.55;;
62673;SDS011;62269;47.594;17.638;2024-03-02T00:12:24;27.48;;;21.37;;
62673;SDS011;62269;47.594;17.638;2024-03-02T00:13:22;25.25;;;20.17;;
62673;SDS011;62269;47.594;17.638;2024-03-02T00:14:19;30.45;;;23.33;;
62673;SDS011;62269;47.594;17.638;2024-03-02T00:16:31;28.58;;;22.70;;
62673;SDS011;62269;47.594;17.638;2024-03-02T00:17:29;29.25;;;23.48;;
62673;SDS011;62269;47.594;17.638;2024-03-02T00:18:26;29.65;;;24.95;;
62673;SDS011;62269;47.594;17.638;2024-03-02T00:20:23;35.83;;;24.70;;
62673;SDS011;62269;47.594;17.638;2024-03-02T00:21:20;34.92;;;25.40;;
62673;SDS011;62269;47.594;17.638;2024-03-02T00:22:19;30.73;;;24.75;;
62673;SDS011;62269;47.594;17.638;2024-03-02T00:23:16;32.88;;;24.25;;
62673;SDS011;62269;47.594;17.638;2024-03-02T00:24:33;33.72;;;23.48;;
62673;SDS011;62269;47.594;17.638;2024-03-02T00:25:38;29.83;;;24.12;;
62673;SDS011;62269;47.594;17.638;2024-03-02T00:26:37;33.00;;;24.70;;
62673;SDS011;62269;47.594;17.638;2024-03-02T00:27:34;34.67;;;24.85;;
62673;SDS011;62269;47.594;17.638;2024-03-02T00:28:32;31.40;;;25.02;;
62673;SDS011;62269;47.594;17.638;2024-03-02T00:29:31;31.95;;;24.30;;
62673;SDS011;62269;47.594;17.638;2024-03-02T00:31:48;23.23;;;18.48;;
62673;SDS011;62269;47.594;17.638;2024-03-02T00:32:45;31.05;;;24.02;;
62673;SDS011;62269;47.594;17.638;2024-03-02T00:33:46;34.50;;;24.20;;
62673;SDS011;62269;47.594;17.638;2024-03-02T00:34:44;31.12;;;22.90;;
62673;SDS011;62269;47.594;17.638;2024-03-02T00:35:43;30.27;;;22.90;;
62673;SDS011;62269;47.594;17.638;2024-03-02T00:36:40;28.70;;;24.35;;
62673;SDS011;62269;47.594;17.638;2024-03-02T00:37:38;39.45;;;26.52;;
62673;SDS011;62269;47.594;17.638;2024-03-02T00:38:39;30.77;;;24.10;;
62673;SDS011;62269;47.594;17.638;2024-03-02T00:39:43;30.40;;;23.95;;
62673;SDS011;62269;47.594;17.638;2024-03-02T00:40:40;32.22;;;24.58;;
62673;SDS011;62269;47.594;17.638;2024-03-02T00:41:36;31.90;;;24.80;;
62673;SDS011;62269;47.594;17.638;2024-03-02T00:42:34;31.35;;;25.23;;
62673;SDS011;62269;47.594;17.638;2024-03-02T00:43:38;31.40;;;25.05;;
62673;SDS011;62269;47.594;17.638;2024-03-02T00:44:42;32.65;;;24.37;;
62673;SDS011;62269;47.594;17.638;2024-03-02T00:45:39;30.67;;;24.55;;
62673;SDS011;62269;47.594;17.638;2024-03-02T00:46:39;33.63;;;25.65;;
62673;SDS011;62269;47.594;17.638;2024-03-02T00:47:38;36.17;;;25.60;;
62673;SDS011;62269;47.594;17.638;2024-03-02T00:48:35;28.02;;;24.15;;
62673;SDS011;62269;47.594;17.638;2024-03-02T00:49:33;33.55;;;25.55;;
62673;SDS011;62269;47.594;17.638;2024-03-02T00:50:32;34.60;;;26.52;;
62673;SDS011;62269;47.594;17.638;2024-03-02T00:51:30;35.22;;;26.35;;
62673;SDS011;62269;47.594;17.638;2024-03-02T00:52:28;31.92;;;25.00;;
62673;SDS011;62269;47.594;17.638;2024-03-02T00:53:25;37.42;;;26.33;;
62673;SDS011;62269;47.594;17.638;2024-03-02T00:54:23;33.92;;;24.92;;
62673;SDS011;62269;47.594;17.638;2024-03-02T00:55:22;31.87;;;25.62;;
62673;SDS011;62269;47.594;17.638;2024-03-02T00:56:19;33.63;;;26.45;;
62673;SDS011;62269;47.594;17.638;2024-03-02T00:57:16;32.25;;;25.98;;
62673;SDS011;62269;47.594;17.638;2024-03-02T00:58:14;33.95;;;26.48;;
62673;SDS011;62269;47.594;17.638;2024-03-02T00:59:11;35.72;;;26.27;;
62673;SDS011;62269;47.594;17.638;2024-03-02T01:00:08;39.42;;;28.50;;
62673;SDS011;62269;47.594;17.638;2024-03-02T01:01:08;26.73;;;19.80;;
62673;SDS011;62269;47.594;17.638;2024-03-02T01:02:06;34.33;;;25.75;;
62673;SDS011;62269;47.594;17.638;2024-03-02T01:03:03;34.20;;;26.90;;
62673;SDS011;62269;47.594;17.638;2024-03-02T01:04:00;31.62;;;25.27;;
62673;SDS011;62269;47.594;17.638;2024-03-02T01:04:57;36.63;;;26.85;;
62673;SDS011;62269;47.594;17.638;2024-03-02T01:05:54;39.35;;;27.65;;
62673;SDS011;62269;47.594;17.638;2024-03-02T01:06:51;32.42;;;26.15;;
62673;SDS011;62269;47.594;17.638;2024-03-02T01:07:48;32.63;;;25.70;;
62673;SDS011;62269;47.594;17.638;2024-03-02T01:08:46;37.67;;;27.33;;
62673;SDS011;62269;47.594;17.638;2024-03-02T01:09:48;34.88;;;27.85;;
62673;SDS011;62269;47.594;17.638;2024-03-02T01:10:45;35.42;;;26.92;;
62673;SDS011;62269;47.594;17.638;2024-03-02T01:11:42;32.67;;;25.52;;
62673;SDS011;62269;47.594;17.638;2024-03-02T01:12:39;36.45;;;26.87;;
62673;SDS011;62269;47.594;17.638;2024-03-02T01:13:36;34.20;;;26.83;;
62673;SDS011;62269;47.594;17.638;2024-03-02T01:14:34;33.70;;;26.52;;
62673;SDS011;62269;47.594;17.638;2024-03-02T01:15:31;39.42;;;26.23;;
62673;SDS011;62269;47.594;17.638;2024-03-02T01:16:29;31.83;;;25.10;;
62673;SDS011;62269;47.594;17.638;2024-03-02T01:17:26;36.13;;;26.35;;
62673;SDS011;62269;47.594;17.638;2024-03-02T01:18:24;33.15;;;25.00;;
62673;SDS011;62269;47.594;17.638;2024-03-02T01:19:21;35.65;;;26.77;;
62673;SDS011;62269;47.594;17.638;2024-03-02T01:20:18;34.90;;;26.67;;
62673;SDS011;62269;47.594;17.638;2024-03-02T01:21:15;37.03;;;26.95;;
62673;SDS011;62269;47.594;17.638;2024-03-02T01:22:13;35.45;;;27.27;;
62673;SDS011;62269;47.594;17.638;2024-03-02T01:23:09;36.95;;;27.58;;
62673;SDS011;62269;47.594;17.638;2024-03-02T01:24:06;40.95;;;29.17;;
62673;SDS011;62269;47.594;17.638;2024-03-02T01:25:04;39.92;;;28.35;;
62673;SDS011;62269;47.594;17.638;2024-03-02T01:26:01;33.40;;;26.50;;
62673;SDS011;62269;47.594;17.638;2024-03-02T01:26:58;36.67;;;27.92;;
62673;SDS011;62269;47.594;17.638;2024-03-02T01:27:55;39.08;;;28.30;;
62673;SDS011;62269;47.594;17.638;2024-03-02T01:28:52;37.38;;;28.12;;
62673;SDS011;62269;47.594;17.638;2024-03-02T01:29:49;41.22;;;29.90;;
62673;SDS011;62269;47.594;17.638;2024-03-02T01:30:46;42.25;;;30.65;;
62673;SDS011;62269;47.594;17.638;2024-03-02T01:31:43;39.63;;;29.25;;
62673;SDS011;62269;47.594;17.638;2024-03-02T01:32:40;40.33;;;29.17;;
62673;SDS011;62269;47.594;17.638;2024-03-02T01:33:37;39.95;;;30.00;;
62673;SDS011;62269;47.594;17.638;2024-03-02T01:34:34;38.67;;;29.05;;
62673;SDS011;62269;47.594;17.638;2024-03-02T01:35:31;36.17;;;26.80;;
62673;SDS011;62269;47.594;17.638;2024-03-02T01:36:28;35.30;;;26.75;;
62673;SDS011;62269;47.594;17.638;2024-03-02T01:37:25;41.47;;;27.58;;
62673;SDS011;62269;47.594;17.638;2024-03-02T01:38:22;36.33;;;27.13;;
62673;SDS011;62269;47.594;17.638;2024-03-02T01:39:19;35.67;;;27.30;;
62673;SDS011;62269;47.594;17.638;2024-03-02T01:40:16;37.40;;;28.00;;
62673;SDS011;62269;47.594;17.638;2024-03-02T01:41:13;35.97;;;26.67;;
62673;SDS011;62269;47.594;17.638;2024-03-02T01:42:10;38.85;;;27.55;;
62673;SDS011;62269;47.594;17.638;2024-03-02T01:43:07;36.60;;;26.75;;
62673;SDS011;62269;47.594;17.638;2024-03-02T01:44:04;33.47;;;26.60;;
62673;SDS011;62269;47.594;17.638;2024-03-02T01:45:01;36.38;;;26.05;;
62673;SDS011;62269;47.594;17.638;2024-03-02T01:45:58;34.20;;;27.08;;
62673;SDS011;62269;47.594;17.638;2024-03-02T01:46:56;37.25;;;27.87;;
62673;SDS011;62269;47.594;17.638;2024-03-02T01:47:53;35.00;;;26.20;;
62673;SDS011;62269;47.594;17.638;2024-03-02T01:48:50;36.78;;;28.38;;
62673;SDS011;62269;47.594;17.638;2024-03-02T01:49:47;36.38;;;26.48;;
62673;SDS011;62269;47.594;17.638;2024-03-02T01:50:44;36.75;;;27.92;;
62673;SDS011;62269;47.594;17.638;2024-03-02T01:51:41;35.28;;;25.92;;
62673;SDS011;62269;47.594;17.638;2024-03-02T01:52:38;37.47;;;26.65;;
62673;SDS011;62269;47.594;17.638;2024-03-02T01:53:35;34.03;;;25.62;;
62673;SDS011;62269;47.594;17.638;2024-03-02T01:54:33;32.20;;;24.73;;
62673;SDS011;62269;47.594;17.638;2024-03-02T01:55:31;34.80;;;26.08;;
62673;SDS011;62269;47.594;17.638;2024-03-02T01:56:29;30.70;;;24.33;;
62673;SDS011;62269;47.594;17.638;2024-03-02T01:57:26;32.15;;;25.48;;
62673;SDS011;62269;47.594;17.638;2024-03-02T01:58:23;33.78;;;26.30;;
62673;SDS011;62269;47.594;17.638;2024-03-02T01:59:20;37.45;;;26.98;;
62673;SDS011;62269;47.594;17.638;2024-03-02T02:00:18;38.58;;;28.73;;
62673;SDS011;62269;47.594;17.638;2024-03-02T02:01:15;36.22;;;28.50;;
62673;SDS011;62269;47.594;17.638;2024-03-02T02:02:14;38.33;;;27.55;;
62673;SDS011;62269;47.594;17.638;2024-03-02T02:03:11;34.30;;;27.27;;
62673;SDS011;62269;47.594;17.638;2024-03-02T02:04:08;33.67;;;27.70;;
62673;SDS011;62269;47.594;17.638;2024-03-02T02:05:05;34.42;;;26.48;;
62673;SDS011;62269;47.594;17.638;2024-03-02T02:06:02;34.13;;;26.02;;
62673;SDS011;62269;47.594;17.638;2024-03-02T02:07:00;34.17;;;28.00;;
62673;SDS011;62269;47.594;17.638;2024-03-02T02:07:57;36.28;;;26.67;;
62673;SDS011;62269;47.594;17.638;2024-03-02T02:08:55;37.90;;;26.75;;
62673;SDS011;62269;47.594;17.638;2024-03-02T02:09:57;44.28;;;28.92;;
62673;SDS011;62269;47.594;17.638;2024-03-02T02:10:54;34.97;;;27.80;;
62673;SDS011;62269;47.594;17.638;2024-03-02T02:11:51;38.70;;;27.15;;
62673;SDS011;62269;47.594;17.638;2024-03-02T02:12:48;33.78;;;25.85;;
62673;SDS011;62269;47.594;17.638;2024-03-02T02:13:46;34.60;;;27.00;;
62673;SDS011;62269;47.594;17.638;2024-03-02T02:14:48;33.45;;;26.02;;
62673;SDS011;62269;47.594;17.638;2024-03-02T02:15:46;33.53;;;26.05;;
62673;SDS011;62269;47.594;17.638;2024-03-02T02:16:43;37.92;;;27.27;;
62673;SDS011;62269;47.594;17.638;2024-03-02T02:17:40;36.75;;;28.10;;
62673;SDS011;62269;47.594;17.638;2024-03-02T02:18:38;38.00;;;28.45;;
62673;SDS011;62269;47.594;17.638;2024-03-02T02:19:34;31.95;;;25.30;;
62673;SDS011;62269;47.594;17.638;2024-03-02T02:20:31;34.53;;;25.80;;
62673;SDS011;62269;47.594;17.638;2024-03-02T02:21:29;31.80;;;25.83;;
62673;SDS011;62269;47.594;17.638;2024-03-02T02:22:25;34.25;;;25.70;;
62673;SDS011;62269;47.594;17.638;2024-03-02T02:23:22;38.55;;;28.23;;
62673;SDS011;62269;47.594;17.638;2024-03-02T02:24:19;38.38;;;27.17;;
62673;SDS011;62269;47.594;17.638;2024-03-02T02:25:16;37.28;;;28.05;;
62673;SDS011;62269;47.594;17.638;2024-03-02T02:26:13;37.92;;;28.40;;
62673;SDS011;62269;47.594;17.638;2024-03-02T02:27:10;38.58;;;28.40;;
62673;SDS011;62269;47.594;17.638;2024-03-02T02:28:11;30.80;;;23.27;;
62673;SDS011;62269;47.594;17.638;2024-03-02T02:29:08;38.88;;;28.00;;
62673;SDS011;62269;47.594;17.638;2024-03-02T02:30:05;36.58;;;28.30;;
62673;SDS011;62269;47.594;17.638;2024-03-02T02:31:02;35.13;;;25.48;;
62673;SDS011;62269;47.594;17.638;2024-03-02T02:31:59;37.92;;;27.30;;
62673;SDS011;62269;47.594;17.638;2024-03-02T02:32:57;37.88;;;27.50;;
62673;SDS011;62269;47.594;17.638;2024-03-02T02:33:54;39.58;;;27.98;;
62673;SDS011;62269;47.594;17.638;2024-03-02T02:34:54;34.65;;;27.58;;
62673;SDS011;62269;47.594;17.638;2024-03-02T02:35:51;35.53;;;27.80;;
62673;SDS011;62269;47.594;17.638;2024-03-02T02:36:48;38.33;;;28.95;;
62673;SDS011;62269;47.594;17.638;2024-03-02T02:37:45;35.35;;;25.20;;
62673;SDS011;62269;47.594;17.638;2024-03-02T02:38:45;35.22;;;27.02;;
62673;SDS011;62269;47.594;17.638;2024-03-02T02:39:43;35.60;;;27.37;;
62673;SDS011;62269;47.594;17.638;2024-03-02T02:40:40;37.30;;;26.52;;
62673;SDS011;62269;47.594;17.638;2024-03-02T02:41:37;37.95;;;27.92;;
62673;SDS011;62269;47.594;17.638;2024-03-02T02:42:35;40.85;;;29.23;;
62673;SDS011;62269;47.594;17.638;2024-03-02T02:43:32;38.38;;;27.40;;
62673;SDS011;62269;47.594;17.638;2024-03-02T02:44:29;40.05;;;28.60;;
62673;SDS011;62269;47.594;17.638;2024-03-02T02:45:26;40.75;;;28.00;;
62673;SDS011;62269;47.594;17.638;2024-03-02T02:46:23;38.65;;;28.80;;
62673;SDS011;62269;47.594;17.638;2024-03-02T02:47:20;46.50;;;31.67;;
62673;SDS011;62269;47.594;17.638;2024-03-02T02:48:16;44.25;;;30.80;;
62673;SDS011;62269;47.594;17.638;2024-03-02T02:49:14;39.08;;;28.58;;
62673;SDS011;62269;47.594;17.638;2024-03-02T02:50:11;39.65;;;29.87;;
62673;SDS011;62269;47.594;17.638;2024-03-02T02:51:09;43.55;;;30.55;;
62673;SDS011;62269;47.594;17.638;2024-03-02T02:52:06;37.85;;;27.67;;
62673;SDS011;62269;47.594;17.638;2024-03-02T02:53:03;37.75;;;25.62;;
62673;SDS011;62269;47.594;17.638;2024-03-02T02:54:00;33.22;;;26.40;;
62673;SDS011;62269;47.594;17.638;2024-03-02T02:54:57;38.05;;;27.60;;
62673;SDS011;62269;47.594;17.638;2024-03-02T02:55:54;38.83;;;27.15;;
62673;SDS011;62269;47.594;17.638;2024-03-02T02:56:51;36.55;;;27.15;;
62673;SDS011;62269;47.594;17.638;2024-03-02T02:57:47;39.75;;;28.48;;
62673;SDS011;62269;47.594;17.638;2024-03-02T02:58:45;42.03;;;29.90;;
62673;SDS011;62269;47.594;17.638;2024-03-02T02:59:41;38.22;;;27.92;;
62673;SDS011;62269;47.594;17.638;2024-03-02T03:00:38;38.90;;;28.42;;
62673;SDS011;62269;47.594;17.638;2024-03-02T03:01:36;39.80;;;28.70;;
62673;SDS011;62269;47.594;17.638;2024-03-02T03:02:34;39.50;;;29.27;;
62673;SDS011;62269;47.594;17.638;2024-03-02T03:03:31;53.35;;;34.58;;
62673;SDS011;62269;47.594;17.638;2024-03-02T03:04:28;37.85;;;28.85;;
62673;SDS011;62269;47.594;17.638;2024-03-02T03:05:25;39.90;;;30.40;;
62673;SDS011;62269;47.594;17.638;2024-03-02T03:06:21;39.38;;;28.50;;
62673;SDS011;62269;47.594;17.638;2024-03-02T03:07:18;45.40;;;32.22;;
62673;SDS011;62269;47.594;17.638;2024-03-02T03:08:15;40.15;;;28.80;;
62673;SDS011;62269;47.594;17.638;2024-03-02T03:09:12;46.60;;;30.83;;
62673;SDS011;62269;47.594;17.638;2024-03-02T03:10:09;45.80;;;29.77;;
62673;SDS011;62269;47.594;17.638;2024-03-02T03:11:06;40.90;;;29.73;;
62673;SDS011;62269;47.594;17.638;2024-03-02T03:12:03;44.55;;;30.37;;
62673;SDS011;62269;47.594;17.638;2024-03-02T03:13:00;40.80;;;29.55;;
62673;SDS011;62269;47.594;17.638;2024-03-02T03:13:57;46.70;;;30.70;;
62673;SDS011;62269;47.594;17.638;2024-03-02T03:14:56;45.88;;;31.20;;
62673;SDS011;62269;47.594;17.638;2024-03-02T03:15:53;46.92;;;31.58;;
62673;SDS011;62269;47.594;17.638;2024-03-02T03:16:50;40.40;;;29.58;;
62673;SDS011;62269;47.594;17.638;2024-03-02T03:17:48;44.10;;;31.98;;
62673;SDS011;62269;47.594;17.638;2024-03-02T03:18:44;42.97;;;30.58;;
62673;SDS011;62269;47.594;17.638;2024-03-02T03:19:41;48.50;;;32.40;;
62673;SDS011;62269;47.594;17.638;2024-03-02T03:20:38;46.92;;;32.28;;
62673;SDS011;62269;47.594;17.638;2024-03-02T03:21:35;43.35;;;30.80;;
62673;SDS011;62269;47.594;17.638;2024-03-02T03:22:32;41.42;;;29.73;;
62673;SDS011;62269;47.594;17.638;2024-03-02T03:23:29;43.00;;;30.85;;
62673;SDS011;62269;47.594;17.638;2024-03-02T03:24:26;44.35;;;30.23;;
62673;SDS011;62269;47.594;17.638;2024-03-02T03:25:23;41.65;;;31.90;;
62673;SDS011;62269;47.594;17.638;2024-03-02T03:26:20;42.80;;;29.80;;
62673;SDS011;62269;47.594;17.638;2024-03-02T03:27:17;41.03;;;28.83;;
62673;SDS011;62269;47.594;17.638;2024-03-02T03:28:14;40.28;;;28.87;;
62673;SDS011;62269;47.594;17.638;2024-03-02T03:29:11;42.83;;;29.52;;
62673;SDS011;62269;47.594;17.638;2024-03-02T03:30:08;47.20;;;32.67;;
62673;SDS011;62269;47.594;17.638;2024-03-02T03:31:05;47.67;;;31.37;;
62673;SDS011;62269;47.594;17.638;2024-03-02T03:32:03;44.35;;;30.75;;
62673;SDS011;62269;47.594;17.638;2024-03-02T03:33:01;44.88;;;31.45;;
62673;SDS011;62269;47.594;17.638;2024-03-02T03:33:58;46.33;;;30.80;;
62673;SDS011;62269;47.594;17.638;2024-03-02T03:34:55;43.67;;;31.05;;
62673;SDS011;62269;47.594;17.638;2024-03-02T03:35:52;43.28;;;30.08;;
62673;SDS011;62269;47.594;17.638;2024-03-02T03:36:50;42.42;;;30.75;;
62673;SDS011;62269;47.594;17.638;2024-03-02T03:37:47;40.67;;;29.92;;
62673;SDS011;62269;47.594;17.638;2024-03-02T03:38:44;41.00;;;29.42;;
62673;SDS011;62269;47.594;17.638;2024-03-02T03:39:41;44.40;;;30.05;;
62673;SDS011;62269;47.594;17.638;2024-03-02T03:40:38;43.50;;;30.55;;
62673;SDS011;62269;47.594;17.638;2024-03-02T03:41:35;44.13;;;30.55;;
62673;SDS011;62269;47.594;17.638;2024-03-02T03:42:32;44.53;;;32.97;;
62673;SDS011;62269;47.594;17.638;2024-03-02T03:43:29;42.42;;;31.25;;
62673;SDS011;62269;47.594;17.638;2024-03-02T03:44:26;44.90;;;31.60;;
62673;SDS011;62269;47.594;17.638;2024-03-02T03:45:23;45.53;;;31.37;;
62673;SDS011;62269;47.594;17.638;2024-03-02T03:46:22;42.97;;;30.00;;
62673;SDS011;62269;47.594;17.638;2024-03-02T03:47:19;41.03;;;29.73;;
62673;SDS011;62269;47.594;17.638;2024-03-02T03:48:17;43.33;;;31.42;;
62673;SDS011;62269;47.594;17.638;2024-03-02T03:49:14;54.33;;;33.72;;
62673;SDS011;62269;47.594;17.638;2024-03-02T03:50:11;47.70;;;30.85;;
62673;SDS011;62269;47.594;17.638;2024-03-02T03:51:08;48.05;;;33.38;;
62673;SDS011;62269;47.594;17.638;2024-03-02T03:52:05;43.10;;;30.25;;
62673;SDS011;62269;47.594;17.638;2024-03-02T03:53:02;43.20;;;31.00;;
62673;SDS011;62269;47.594;17.638;2024-03-02T03:53:59;46.80;;;30.95;;
62673;SDS011;62269;47.594;17.638;2024-03-02T03:54:56;47.67;;;32.95;;
62673;SDS011;62269;47.594;17.638;2024-03-02T03:55:53;47.30;;;31.55;;
62673;SDS011;62269;47.594;17.638;2024-03-02T03:56:50;45.75;;;32.17;;
62673;SDS011;62269;47.594;17.638;2024-03-02T03:57:47;48.97;;;32.15;;
62673;SDS011;62269;47.594;17.638;2024-03-02T03:58:44;45.28;;;31.33;;
62673;SDS011;62269;47.594;17.638;2024-03-02T03:59:41;42.10;;;29.92;;
62673;SDS011;62269;47.594;17.638;2024-03-02T04:00:39;45.40;;;31.40;;
62673;SDS011;62269;47.594;17.638;2024-03-02T04:01:36;46.08;;;32.70;;
62673;SDS011;62269;47.594;17.638;2024-03-02T04:02:34;47.78;;;32.38;;
62673;SDS011;62269;47.594;17.638;2024-03-02T04:03:32;47.55;;;30.95;;
62673;SDS011;62269;47.594;17.638;2024-03-02T04:04:29;46.03;;;32.15;;
62673;SDS011;62269;47.594;17.638;2024-03-02T04:05:26;40.50;;;30.73;;
62673;SDS011;62269;47.594;17.638;2024-03-02T04:06:24;48.33;;;31.67;;
62673;SDS011;62269;47.594;17.638;2024-03-02T04:07:21;47.40;;;31.80;;
62673;SDS011;62269;47.594;17.638;2024-03-02T04:08:18;46.97;;;32.25;;
62673;SDS011;62269;47.594;17.638;2024-03-02T04:09:15;47.67;;;33.25;;
62673;SDS011;62269;47.594;17.638;2024-03-02T04:10:12;47.53;;;33.60;;
62673;SDS011;62269;47.594;17.638;2024-03-02T04:11:09;48.70;;;34.17;;
62673;SDS011;62269;47.594;17.638;2024-03-02T04:12:06;53.38;;;33.92;;
62673;SDS011;62269;47.594;17.638;2024-03-02T04:13:03;53.67;;;36.28;;
62673;SDS011;62269;47.594;17.638;2024-03-02T04:14:00;51.00;;;35.50;;
62673;SDS011;62269;47.594;17.638;2024-03-02T04:14:57;50.70;;;34.35;;
62673;SDS011;62269;47.594;17.638;2024-03-02T04:15:54;46.05;;;33.25;;
62673;SDS011;62269;47.594;17.638;2024-03-02T04:16:51;49.80;;;34.88;;
62673;SDS011;62269;47.594;17.638;2024-03-02T04:17:48;53.78;;;33.95;;
62673;SDS011;62269;47.594;17.638;2024-03-02T04:18:45;51.35;;;35.85;;
62673;SDS011;62269;47.594;17.638;2024-03-02T04:19:42;52.05;;;33.50;;
62673;SDS011;62269;47.594;17.638;2024-03-02T04:20:39;51.30;;;36.40;;
62673;SDS011;62269;47.594;17.638;2024-03-02T04:21:36;57.28;;;35.80;;
62673;SDS011;62269;47.594;17.638;2024-03-02T04:22:33;51.58;;;35.20;;
62673;SDS011;62269;47.594;17.638;2024-03-02T04:23:31;48.87;;;34.08;;
62673;SDS011;62269;47.594;17.638;2024-03-02T04:24:28;49.08;;;34.38;;
62673;SDS011;62269;47.594;17.638;2024-03-02T04:25:25;48.95;;;33.28;;
62673;SDS011;62269;47.594;17.638;2024-03-02T04:26:22;47.75;;;33.08;;
62673;SDS011;62269;47.594;17.638;2024-03-02T04:27:19;48.38;;;33.63;;
62673;SDS011;62269;47.594;17.638;2024-03-02T04:28:16;46.30;;;32.10;;
62673;SDS011;62269;47.594;17.638;2024-03-02T04:29:13;44.85;;;31.27;;
62673;SDS011;62269;47.594;17.638;2024-03-02T04:30:10;44.45;;;32.95;;
62673;SDS011;62269;47.594;17.638;2024-03-02T04:31:08;43.03;;;31.00;;
62673;SDS011;62269;47.594;17.638;2024-03-02T04:32:05;46.13;;;31.48;;
62673;SDS011;62269;47.594;17.638;2024-03-02T04:33:02;44.03;;;31.58;;
62673;SDS011;62269;47.594;17.638;2024-03-02T04:34:00;44.97;;;31.05;;
62673;SDS011;62269;47.594;17.638;2024-03-02T04:34:57;42.65;;;30.37;;
62673;SDS011;62269;47.594;17.638;2024-03-02T04:35:54;45.83;;;31.48;;
62673;SDS011;62269;47.594;17.638;2024-03-02T04:36:51;43.90;;;31.85;;
62673;SDS011;62269;47.594;17.638;2024-03-02T04:37:48;41.05;;;30.73;;
62673;SDS011;62269;47.594;17.638;2024-03-02T04:38:45;45.67;;;31.52;;
62673;SDS011;62269;47.594;17.638;2024-03-02T04:39:42;47.78;;;31.83;;
62673;SDS011;62269;47.594;17.638;2024-03-02T04:40:39;43.10;;;31.70;;
62673;SDS011;62269;47.594;17.638;2024-03-02T04:41:35;50.83;;;33.67;;
62673;SDS011;62269;47.594;17.638;2024-03-02T04:42:32;48.85;;;34.00;;
62673;SDS011;62269;47.594;17.638;2024-03-02T04:43:29;50.75;;;35.63;;
62673;SDS011;62269;47.594;17.638;2024-03-02T04:44:28;50.63;;;34.50;;
62673;SDS011;62269;47.594;17.638;2024-03-02T04:45:25;52.70;;;34.78;;
62673;SDS011;62269;47.594;17.638;2024-03-02T04:46:22;51.78;;;36.72;;
62673;SDS011;62269;47.594;17.638;2024-03-02T04:47:19;51.28;;;34.88;;
62673;SDS011;62269;47.594;17.638;2024-03-02T04:48:16;48.47;;;35.33;;
62673;SDS011;62269;47.594;17.638;2024-03-02T04:49:13;47.22;;;33.60;;
62673;SDS011;62269;47.594;17.638;2024-03-02T04:50:10;52.95;;;34.58;;
62673;SDS011;62269;47.594;17.638;2024-03-02T04:51:07;47.00;;;34.53;;
62673;SDS011;62269;47.594;17.638;2024-03-02T04:52:04;49.20;;;33.42;;
62673;SDS011;62269;47.594;17.638;2024-03-02T04:53:01;44.50;;;31.90;;
62673;SDS011;62269;47.594;17.638;2024-03-02T04:53:59;46.85;;;33.22;;
62673;SDS011;62269;47.594;17.638;2024-03-02T04:54:56;49.80;;;33.97;;
62673;SDS011;62269;47.594;17.638;2024-03-02T04:56:11;45.67;;;30.88;;
62673;SDS011;62269;47.594;17.638;2024-03-02T04:57:27;45.53;;;30.67;;
62673;SDS011;62269;47.594;17.638;2024-03-02T04:58:24;49.35;;;32.95;;
62673;SDS011;62269;47.594;17.638;2024-03-02T04:59:21;45.65;;;33.63;;
62673;SDS011;62269;47.594;17.638;2024-03-02T05:00:18;49.55;;;33.88;;
62673;SDS011;62269;47.594;17.638;2024-03-02T05:01:15;50.88;;;32.40;;
62673;SDS011;62269;47.594;17.638;2024-03-02T05:02:14;49.15;;;33.28;;
62673;SDS011;62269;47.594;17.638;2024-03-02T05:03:11;51.45;;;33.55;;
62673;SDS011;62269;47.594;17.638;2024-03-02T05:04:08;53.47;;;33.97;;
62673;SDS011;62269;47.594;17.638;2024-03-02T05:05:08;47.97;;;32.47;;
62673;SDS011;62269;47.594;17.638;2024-03-02T05:06:05;46.65;;;33.85;;
62673;SDS011;62269;47.594;17.638;2024-03-02T05:07:02;46.60;;;32.03;;
62673;SDS011;62269;47.594;17.638;2024-03-02T05:07:59;48.50;;;33.85;;
62673;SDS011;62269;47.594;17.638;2024-03-02T05:08:56;47.50;;;34.08;;
62673;SDS011;62269;47.594;17.638;2024-03-02T05:09:53;45.55;;;32.45;;
62673;SDS011;62269;47.594;17.638;2024-03-02T05:10:51;42.08;;;31.30;;
62673;SDS011;62269;47.594;17.638;2024-03-02T05:11:48;43.63;;;32.30;;
62673;SDS011;62269;47.594;17.638;2024-03-02T05:13:11;40.85;;;30.88;;
62673;SDS011;62269;47.594;17.638;2024-03-02T05:14:08;40.20;;;29.90;;
62673;SDS011;62269;47.594;17.638;2024-03-02T05:15:05;41.55;;;30.55;;
62673;SDS011;62269;47.594;17.638;2024-03-02T05:16:03;46.15;;;31.67;;
62673;SDS011;62269;47.594;17.638;2024-03-02T05:17:00;47.97;;;33.28;;
62673;SDS011;62269;47.594;17.638;2024-03-02T05:17:57;46.75;;;32.53;;
62673;SDS011;62269;47.594;17.638;2024-03-02T05:18:56;48.65;;;33.33;;
62673;SDS011;62269;47.594;17.638;2024-03-02T05:19:53;48.83;;;33.60;;
62673;SDS011;62269;47.594;17.638;2024-03-02T05:20:50;49.20;;;32.67;;
62673;SDS011;62269;47.594;17.638;2024-03-02T05:21:47;46.10;;;32.55;;
62673;SDS011;62269;47.594;17.638;2024-03-02T05:22:45;45.63;;;31.70;;
62673;SDS011;62269;47.594;17.638;2024-03-02T05:23:42;46.37;;;32.67;;
62673;SDS011;62269;47.594;17.638;2024-03-02T05:24:39;47.35;;;33.92;;
62673;SDS011;62269;47.594;17.638;2024-03-02T05:25:36;47.45;;;34.50;;
62673;SDS011;62269;47.594;17.638;2024-03-02T05:26:33;47.42;;;32.13;;
62673;SDS011;62269;47.594;17.638;2024-03-02T05:27:30;40.38;;;30.25;;
62673;SDS011;62269;47.594;17.638;2024-03-02T05:28:29;43.40;;;31.05;;
62673;SDS011;62269;47.594;17.638;2024-03-02T05:29:26;43.40;;;31.62;;
62673;SDS011;62269;47.594;17.638;2024-03-02T05:30:23;42.95;;;30.30;;
62673;SDS011;62269;47.594;17.638;2024-03-02T05:31:23;38.20;;;28.87;;
62673;SDS011;62269;47.594;17.638;2024-03-02T05:32:20;44.67;;;30.55;;
62673;SDS011;62269;47.594;17.638;2024-03-02T05:33:17;38.65;;;29.00;;
62673;SDS011;62269;47.594;17.638;2024-03-02T05:34:14;39.13;;;29.65;;
62673;SDS011;62269;47.594;17.638;2024-03-02T05:35:12;45.67;;;31.85;;
62673;SDS011;62269;47.594;17.638;2024-03-02T05:36:09;44.78;;;31.90;;